Elon College, North Carolina
Current Conditions -  °F | °C
As of 6:02 AM on Wednesday 26 Nov 2014 (Local Time) from KBUY Reporting Station
Moderate Rain Moderate Rain  
Wind Chill: 39°   Ceiling: 800
Heat Index: 45°   Visibility: 5mi
Dew Point: 41°   Wind: 12mph
Humidity: 86%   Direction: 330°NNW
Pressure: 29.97"   Gusts: 21mph
Location:  36.2189°N, 79.4807°W
Report Text: KBUY 261102Z AUTO 33010G18KT 5SM RA BR BKN008 OVC050 07/05 A2997 RMK AO2 PRESRR P0001 T00720050
Loading
Personal Weather Stations






























Interactive Weather Map New forecast layout! Learn more

10-Day Weather Forecast

Advertisements
Track Severe Weather on mobile